createdAt,value
2023-04-18T00:01:04.270Z,3.52
2023-04-18T00:04:09.454Z,3.61
2023-04-18T00:07:15.232Z,3.53
2023-04-18T00:10:19.447Z,3.60
2023-04-18T00:13:25.801Z,3.34
2023-04-18T00:16:31.956Z,3.42
2023-04-18T00:19:37.325Z,3.38
2023-04-18T00:22:41.525Z,3.58
2023-04-18T00:25:45.777Z,3.74
2023-04-18T00:29:15.249Z,3.96
2023-04-18T00:32:17.387Z,4.10
2023-04-18T00:35:21.454Z,3.97
2023-04-18T00:38:25.894Z,4.06
2023-04-18T00:41:33.348Z,4.52
2023-04-18T00:44:47.720Z,4.44
2023-04-18T00:47:53.183Z,4.36
2023-04-18T00:51:19.728Z,4.06
2023-04-18T00:54:21.892Z,3.98
2023-04-18T00:57:36.093Z,4.31
2023-04-18T01:00:40.279Z,4.18
2023-04-18T01:03:43.924Z,4.05
2023-04-18T01:06:50.836Z,4.14
2023-04-18T01:13:13.991Z,4.29
2023-04-18T01:16:18.514Z,4.16
2023-04-18T01:19:22.575Z,4.66
2023-04-18T01:22:26.330Z,4.81
2023-04-18T01:25:30.252Z,4.85
2023-04-18T01:28:38.480Z,4.64
2023-04-18T01:31:42.894Z,4.72
2023-04-18T01:35:03.512Z,4.77
2023-04-18T01:38:07.999Z,5.02
2023-04-18T01:41:15.263Z,4.75
2023-04-18T01:44:19.422Z,4.54
2023-04-18T01:47:23.291Z,4.92
2023-04-18T01:50:27.602Z,5.30
2023-04-18T01:53:31.527Z,4.93
2023-04-18T01:56:36.501Z,4.83
2023-04-18T01:59:40.609Z,4.56
2023-04-18T02:02:47.135Z,4.60
2023-04-18T02:05:52.511Z,4.69
2023-04-18T02:08:59.707Z,4.76
2023-04-18T02:12:04.083Z,4.71
2023-04-18T02:15:09.386Z,4.86
2023-04-18T02:18:13.721Z,4.88
2023-04-18T02:21:21.663Z,4.86
2023-04-18T02:24:25.671Z,4.57
2023-04-18T02:27:30.737Z,4.53
2023-04-18T02:30:34.887Z,4.46
2023-04-18T02:33:38.798Z,4.51
2023-04-18T02:36:44.972Z,4.69
2023-04-18T02:39:50.245Z,4.62
2023-04-18T02:42:54.293Z,4.56
2023-04-18T02:46:02.334Z,4.67
2023-04-18T02:49:06.533Z,4.96
2023-04-18T02:52:10.937Z,4.70
2023-04-18T02:55:14.993Z,5.02
2023-04-18T02:58:23.868Z,4.82
2023-04-18T03:01:28.156Z,4.84
2023-04-18T03:04:33.284Z,4.79
2023-04-18T03:07:37.482Z,5.38
2023-04-18T03:10:42.620Z,5.23
2023-04-18T03:13:48.177Z,5.12
2023-04-18T03:16:55.165Z,5.19
2023-04-18T03:19:59.473Z,5.06
2023-04-18T03:23:09.466Z,5.19
2023-04-18T03:26:13.520Z,6.40
2023-04-18T03:29:18.695Z,6.35
2023-04-18T03:32:23.087Z,6.90
2023-04-18T03:35:27.220Z,5.99
2023-04-18T03:38:31.310Z,5.84
2023-04-18T03:41:35.192Z,5.81
2023-04-18T03:44:40.712Z,5.91
2023-04-18T03:47:44.906Z,6.33
2023-04-18T03:50:49.074Z,5.97
2023-04-18T03:54:00.272Z,5.95
2023-04-18T03:57:05.750Z,5.73
2023-04-18T04:00:12.992Z,6.05
2023-04-18T04:03:18.481Z,5.96
2023-04-18T04:06:22.555Z,5.80
2023-04-18T04:09:26.527Z,5.77
2023-04-18T04:12:32.740Z,5.68
2023-04-18T04:15:38.178Z,5.51
2023-04-18T04:18:43.590Z,5.74
2023-04-18T04:21:47.869Z,6.06
2023-04-18T04:24:51.878Z,5.91
2023-04-18T04:27:55.851Z,6.23
2023-04-18T04:30:59.645Z,6.02
2023-04-18T04:34:03.581Z,6.44
2023-04-18T04:37:07.498Z,6.55
2023-04-18T04:40:14.511Z,6.43
2023-04-18T04:43:19.575Z,6.57
2023-04-18T04:46:23.703Z,6.74
2023-04-18T04:49:27.854Z,6.74
2023-04-18T04:52:31.648Z,7.19
2023-04-18T04:55:37.031Z,7.55
2023-04-18T04:58:41.175Z,6.53
2023-04-18T05:01:45.013Z,6.21
2023-04-18T05:04:49.159Z,6.35
2023-04-18T05:07:54.341Z,6.60
2023-04-18T05:10:59.723Z,6.84
2023-04-18T05:14:05.376Z,7.18
2023-04-18T05:17:10.745Z,7.23
2023-04-18T05:20:15.020Z,7.46
2023-04-18T05:23:19.083Z,7.34
2023-04-18T05:26:22.920Z,7.53
2023-04-18T05:29:27.292Z,7.43
2023-04-18T05:32:31.340Z,7.41
2023-04-18T05:35:34.978Z,7.33
2023-04-18T05:38:40.068Z,7.34
2023-04-18T05:41:44.236Z,7.16
2023-04-18T05:44:52.562Z,7.19
2023-04-18T05:47:59.994Z,7.52
2023-04-18T05:51:04.273Z,6.97
2023-04-18T05:54:08.641Z,7.36
2023-04-18T05:57:12.260Z,7.70
2023-04-18T06:00:16.314Z,8.16
2023-04-18T06:03:20.460Z,8.95
2023-04-18T06:06:26.372Z,8.86
2023-04-18T06:09:30.840Z,9.02
2023-04-18T06:12:34.476Z,8.24
2023-04-18T06:15:38.282Z,9.00
2023-04-18T06:18:46.753Z,9.33
2023-04-18T06:21:50.946Z,9.32
2023-04-18T06:24:56.943Z,9.28
2023-04-18T06:28:01.018Z,8.94
2023-04-18T06:31:05.157Z,10.42
2023-04-18T06:34:31.169Z,9.63
2023-04-18T06:37:34.771Z,9.62
2023-04-18T06:40:38.888Z,8.93
2023-04-18T06:43:52.154Z,9.20
2023-04-18T06:47:05.780Z,8.97
2023-04-18T06:50:10.930Z,8.98
2023-04-18T06:53:15.071Z,8.66
2023-04-18T06:56:19.057Z,8.75
2023-04-18T06:59:24.190Z,9.34
2023-04-18T07:02:29.416Z,8.39
2023-04-18T07:05:35.597Z,8.76
2023-04-18T07:08:43.842Z,8.14
2023-04-18T07:11:52.549Z,8.26
2023-04-18T07:14:57.826Z,8.34
2023-04-18T07:18:03.139Z,8.20
2023-04-18T07:21:07.771Z,7.80
2023-04-18T07:24:12.684Z,8.11
2023-04-18T07:27:18.420Z,7.61
2023-04-18T07:30:22.633Z,8.01
2023-04-18T07:33:49.544Z,8.24
2023-04-18T07:36:54.097Z,7.68
2023-04-18T07:39:58.266Z,7.78
2023-04-18T07:43:04.307Z,7.83
2023-04-18T07:46:08.438Z,7.80
2023-04-18T07:49:15.297Z,8.26
2023-04-18T07:52:19.700Z,7.97
2023-04-18T07:55:23.520Z,8.11
2023-04-18T07:58:30.733Z,8.04
2023-04-18T08:01:34.851Z,7.86
2023-04-18T08:04:40.615Z,8.01
2023-04-18T08:07:44.881Z,8.17
2023-04-18T08:10:48.770Z,7.59
2023-04-18T08:13:52.748Z,6.89
2023-04-18T08:16:56.907Z,6.98
2023-04-18T08:20:00.928Z,6.71
2023-04-18T08:23:08.411Z,6.96
2023-04-18T08:26:13.648Z,7.02
2023-04-18T08:29:17.774Z,7.45
2023-04-18T08:32:22.043Z,7.00
2023-04-18T08:35:25.852Z,7.45
2023-04-18T08:38:30.837Z,7.10
2023-04-18T08:41:35.101Z,6.55
2023-04-18T08:44:38.686Z,6.78
2023-04-18T08:47:42.686Z,6.44
2023-04-18T08:50:47.701Z,6.80
2023-04-18T08:53:53.150Z,6.79
2023-04-18T08:56:57.085Z,7.01
2023-04-18T09:00:01.043Z,6.64
2023-04-18T09:03:04.925Z,6.56
2023-04-18T09:06:08.845Z,6.47
2023-04-18T09:09:13.345Z,6.65
2023-04-18T09:12:17.944Z,6.58
2023-04-18T09:15:21.917Z,6.68
2023-04-18T09:18:26.091Z,6.39
2023-04-18T09:21:30.299Z,6.62
2023-04-18T09:24:34.390Z,6.34
2023-04-18T09:27:38.557Z,6.73
2023-04-18T09:30:42.533Z,6.41
2023-04-18T09:33:46.311Z,6.28
2023-04-18T09:36:50.468Z,6.89
2023-04-18T09:39:54.620Z,6.69
2023-04-18T09:43:01.787Z,6.54
2023-04-18T09:46:06.068Z,6.50
2023-04-18T09:49:11.278Z,6.39
2023-04-18T09:52:18.419Z,6.12
2023-04-18T09:55:22.566Z,6.63
2023-04-18T09:58:26.750Z,6.59
2023-04-18T10:01:32.174Z,6.95
2023-04-18T10:04:36.036Z,6.80
2023-04-18T10:07:39.877Z,6.77
2023-04-18T10:10:45.016Z,6.66
2023-04-18T10:13:49.120Z,6.42
2023-04-18T10:16:53.470Z,6.73
2023-04-18T10:19:59.741Z,6.35
2023-04-18T10:23:03.572Z,6.46
2023-04-18T10:26:07.704Z,6.55
2023-04-18T10:29:12.095Z,6.68
2023-04-18T10:32:16.221Z,6.60
2023-04-18T10:35:20.007Z,6.63
2023-04-18T10:38:23.840Z,6.34
2023-04-18T10:41:27.959Z,6.84
2023-04-18T10:44:32.166Z,7.42
2023-04-18T10:47:37.365Z,7.37
2023-04-18T10:50:42.577Z,7.23
2023-04-18T10:53:49.477Z,7.14
2023-04-18T10:56:53.407Z,6.67
2023-04-18T10:59:57.557Z,5.88
2023-04-18T11:03:01.899Z,5.77
2023-04-18T11:06:05.914Z,5.58
2023-04-18T11:09:10.502Z,5.42
2023-04-18T11:12:14.497Z,5.44
2023-04-18T11:15:18.584Z,4.88
2023-04-18T11:18:22.711Z,5.42
2023-04-18T11:21:28.079Z,5.37
2023-04-18T11:24:33.410Z,5.15
2023-04-18T11:27:37.195Z,5.94
2023-04-18T11:30:41.046Z,7.13
2023-04-18T11:33:47.132Z,5.80
2023-04-18T11:36:51.496Z,5.57
2023-04-18T11:39:55.545Z,6.11
2023-04-18T11:42:59.587Z,6.65
2023-04-18T11:46:03.512Z,6.78
2023-04-18T11:49:07.678Z,7.68
2023-04-18T11:52:13.019Z,7.75
2023-04-18T11:55:17.039Z,8.01
2023-04-18T11:58:20.799Z,9.30
2023-04-18T12:01:24.868Z,9.62
2023-04-18T12:04:28.960Z,8.89
2023-04-18T12:07:32.761Z,9.12
2023-04-18T12:10:37.949Z,9.20
2023-04-18T12:13:42.214Z,9.40
2023-04-18T12:16:46.090Z,9.68
2023-04-18T12:19:50.398Z,9.45
2023-04-18T12:22:54.285Z,9.93
2023-04-18T12:26:00.119Z,8.94
2023-04-18T12:29:04.222Z,9.36
2023-04-18T12:32:08.262Z,9.35
2023-04-18T12:35:12.129Z,9.23
2023-04-18T12:38:16.037Z,8.91
2023-04-18T12:41:19.906Z,9.36
2023-04-18T12:44:23.636Z,9.35
2023-04-18T12:47:27.562Z,9.48
2023-04-18T12:50:31.386Z,9.23
2023-04-18T12:53:36.597Z,10.24
2023-04-18T12:56:40.744Z,10.25
2023-04-18T12:59:44.798Z,9.66
2023-04-18T13:02:48.944Z,9.14
2023-04-18T13:05:53.343Z,9.66
2023-04-18T13:08:57.511Z,9.54
2023-04-18T13:12:02.920Z,8.90
2023-04-18T13:15:07.095Z,9.18
2023-04-18T13:18:11.173Z,9.10
2023-04-18T13:21:16.587Z,9.30
2023-04-18T13:24:20.643Z,9.23
2023-04-18T13:27:30.841Z,9.16
2023-04-18T13:30:36.033Z,8.89
2023-04-18T13:33:40.096Z,9.31
2023-04-18T13:36:45.404Z,8.57
2023-04-18T13:39:50.902Z,9.13
2023-04-18T13:42:55.220Z,9.11
2023-04-18T13:45:59.252Z,8.52
2023-04-18T13:49:03.080Z,8.95
2023-04-18T13:52:06.914Z,8.84
2023-04-18T13:55:12.057Z,9.15
2023-04-18T13:58:16.586Z,9.21
2023-04-18T14:01:20.522Z,9.17
2023-04-18T14:04:26.008Z,8.76
2023-04-18T14:07:31.719Z,9.06
2023-04-18T14:10:35.578Z,8.87
2023-04-18T14:13:41.448Z,8.33
2023-04-18T14:16:45.800Z,8.99
2023-04-18T14:19:51.131Z,8.49
2023-04-18T14:22:58.445Z,7.81
2023-04-18T14:26:04.339Z,7.61
2023-04-18T14:29:08.524Z,7.54
2023-04-18T14:32:12.468Z,7.53
2023-04-18T14:35:16.351Z,7.65
2023-04-18T14:38:22.244Z,7.61
2023-04-18T14:41:26.596Z,7.55
2023-04-18T14:44:30.499Z,7.58
2023-04-18T14:47:35.422Z,7.93
2023-04-18T14:50:39.464Z,7.48
2023-04-18T14:53:43.683Z,6.94
2023-04-18T14:56:47.555Z,6.98
2023-04-18T14:59:51.372Z,6.84
2023-04-18T15:02:55.574Z,6.39
2023-04-18T15:06:03.726Z,6.38
2023-04-18T15:09:09.495Z,6.93
2023-04-18T15:12:13.667Z,6.96
2023-04-18T15:15:18.813Z,7.05
2023-04-18T15:18:24.141Z,6.98
2023-04-18T15:21:28.388Z,6.91
2023-04-18T15:24:33.161Z,7.16
2023-04-18T15:27:37.246Z,7.37
2023-04-18T15:30:43.188Z,7.26
2023-04-18T15:33:48.849Z,7.12
2023-04-18T15:36:56.817Z,7.18
2023-04-18T15:40:02.491Z,6.71
2023-04-18T15:43:06.805Z,7.17
2023-04-18T15:46:13.648Z,6.89
2023-04-18T15:49:17.928Z,6.55
2023-04-18T15:52:22.938Z,7.48
2023-04-18T15:55:27.323Z,6.82
2023-04-18T15:58:31.222Z,6.72
2023-04-18T16:01:35.679Z,6.25
2023-04-18T16:04:39.995Z,4.00
2023-04-18T16:07:46.437Z,3.49
2023-04-18T16:10:51.970Z,3.43
2023-04-18T16:13:59.237Z,3.72
2023-04-18T16:17:03.526Z,4.02
2023-04-18T16:20:07.663Z,3.90
2023-04-18T16:23:11.778Z,4.21
2023-04-18T16:26:16.803Z,4.19
2023-04-18T16:29:20.887Z,3.18
2023-04-18T16:32:24.762Z,3.13
2023-04-18T16:35:30.497Z,3.47
2023-04-18T16:38:34.678Z,3.99
2023-04-18T16:41:38.555Z,3.46
2023-04-18T16:44:42.446Z,3.36
2023-04-18T16:47:50.556Z,2.49
2023-04-18T16:50:59.071Z,2.27
2023-04-18T16:54:03.468Z,1.55
2023-04-18T16:57:07.815Z,1.44
2023-04-18T17:00:14.078Z,1.38
2023-04-18T17:03:17.993Z,1.32
2023-04-18T17:06:22.468Z,1.18
2023-04-18T17:09:27.717Z,1.13
2023-04-18T17:12:31.853Z,1.30
2023-04-18T17:15:36.166Z,1.30
2023-04-18T17:18:40.196Z,1.20
2023-04-18T17:21:44.359Z,1.11
2023-04-18T17:24:49.190Z,1.36
2023-04-18T17:27:53.217Z,1.32
2023-04-18T17:30:57.209Z,1.39
2023-04-18T17:34:01.258Z,1.53
2023-04-18T17:37:06.445Z,2.18
2023-04-18T17:40:10.321Z,2.33
2023-04-18T17:43:14.393Z,2.48
2023-04-18T17:46:18.417Z,2.76
2023-04-18T17:49:23.617Z,3.32
2023-04-18T17:52:27.805Z,4.12
2023-04-18T17:55:32.125Z,4.19
2023-04-18T17:58:36.080Z,4.64
2023-04-18T18:01:40.315Z,5.24
2023-04-18T18:04:44.127Z,5.35
2023-04-18T18:07:48.872Z,5.22
2023-04-18T18:10:56.252Z,5.57
2023-04-18T18:14:00.185Z,5.67
2023-04-18T18:17:04.527Z,5.58
2023-04-18T18:20:08.714Z,6.33
2023-04-18T18:23:12.740Z,5.93
2023-04-18T18:26:16.431Z,6.65
2023-04-18T18:29:21.843Z,6.46
2023-04-18T18:32:32.975Z,6.60
2023-04-18T18:35:38.598Z,6.63
2023-04-18T18:38:53.316Z,7.03
2023-04-18T18:41:57.372Z,6.81
2023-04-18T18:45:01.424Z,7.11
2023-04-18T18:48:07.399Z,7.47
2023-04-18T18:51:11.590Z,7.01
2023-04-18T18:54:15.507Z,7.40
2023-04-18T18:57:19.336Z,7.33
2023-04-18T19:00:23.561Z,7.34
2023-04-18T19:03:27.881Z,7.94
2023-04-18T19:06:31.839Z,7.46
2023-04-18T19:09:36.010Z,7.62
2023-04-18T19:12:39.854Z,7.95
2023-04-18T19:15:44.044Z,7.66
2023-04-18T19:18:48.349Z,7.91
2023-04-18T19:21:52.234Z,7.56
2023-04-18T19:24:55.956Z,8.09
2023-04-18T19:28:00.009Z,7.58
2023-04-18T19:31:04.282Z,8.01
2023-04-18T19:34:08.344Z,7.92
2023-04-18T19:37:12.277Z,8.04
2023-04-18T19:40:16.361Z,7.59
2023-04-18T19:43:20.215Z,7.80
2023-04-18T19:46:24.480Z,7.54
2023-04-18T19:49:28.615Z,7.54
2023-04-18T19:52:32.732Z,7.18
2023-04-18T19:55:36.545Z,7.23
2023-04-18T19:58:41.646Z,7.51
2023-04-18T20:01:49.164Z,7.43
2023-04-18T20:04:53.333Z,7.45
2023-04-18T20:07:57.919Z,7.33
2023-04-18T20:11:01.886Z,7.71
2023-04-18T20:14:07.153Z,7.42
2023-04-18T20:17:11.505Z,7.61
2023-04-18T20:20:18.282Z,7.71
2023-04-18T20:23:22.170Z,7.46
2023-04-18T20:26:26.612Z,7.45
2023-04-18T20:29:31.803Z,7.50
2023-04-18T20:32:35.860Z,7.82
2023-04-18T20:35:40.151Z,7.41
2023-04-18T20:38:44.525Z,7.34
2023-04-18T20:41:48.448Z,7.52
2023-04-18T20:44:54.526Z,7.80
2023-04-18T20:48:00.711Z,7.75
2023-04-18T20:51:04.775Z,7.79
2023-04-18T20:54:08.919Z,7.93
2023-04-18T20:57:13.287Z,7.67
2023-04-18T21:00:17.334Z,7.66
2023-04-18T21:03:21.142Z,7.63
2023-04-18T21:06:25.189Z,7.86
2023-04-18T21:09:31.299Z,7.29
2023-04-18T21:12:36.004Z,7.71
2023-04-18T21:15:40.244Z,7.90
2023-04-18T21:18:48.685Z,8.02
2023-04-18T21:21:52.938Z,8.11
2023-04-18T21:24:57.518Z,8.29
2023-04-18T21:28:02.745Z,7.60
2023-04-18T21:31:06.978Z,8.08
2023-04-18T21:34:11.500Z,8.81
2023-04-18T21:37:15.383Z,8.37
2023-04-18T21:40:19.570Z,8.16
2023-04-18T21:43:23.341Z,8.28
2023-04-18T21:46:30.602Z,8.38
2023-04-18T21:49:36.191Z,8.22
2023-04-18T21:52:41.407Z,8.40
2023-04-18T21:55:45.527Z,8.04
2023-04-18T21:58:55.174Z,7.80
2023-04-18T22:01:59.236Z,8.56
2023-04-18T22:05:03.350Z,8.34
2023-04-18T22:08:11.890Z,8.29
2023-04-18T22:11:16.961Z,8.43
2023-04-18T22:14:21.288Z,8.33
2023-04-18T22:17:25.770Z,8.37
2023-04-18T22:20:30.120Z,8.63
2023-04-18T22:23:34.360Z,8.23
2023-04-18T22:26:38.144Z,8.81
2023-04-18T22:29:44.132Z,8.74
2023-04-18T22:32:48.267Z,8.56
2023-04-18T22:35:55.650Z,8.57
2023-04-18T22:38:59.986Z,8.85
2023-04-18T22:42:06.922Z,8.84
2023-04-18T22:45:10.617Z,9.06
2023-04-18T22:48:14.493Z,9.13
2023-04-18T22:51:23.110Z,9.06
2023-04-18T22:54:27.185Z,9.25
2023-04-18T22:57:31.124Z,9.24
2023-04-18T23:00:35.246Z,9.25
2023-04-18T23:03:41.575Z,8.95
2023-04-18T23:06:45.595Z,9.08
2023-04-18T23:09:49.645Z,9.15
2023-04-18T23:12:53.843Z,9.12
2023-04-18T23:16:04.351Z,9.12
2023-04-18T23:19:08.524Z,8.93
2023-04-18T23:22:12.670Z,9.03
2023-04-18T23:25:16.575Z,9.21
2023-04-18T23:28:20.577Z,9.08
2023-04-18T23:31:24.526Z,8.83
2023-04-18T23:34:30.488Z,9.16
2023-04-18T23:37:37.779Z,8.79
2023-04-18T23:40:45.075Z,9.03
2023-04-18T23:43:53.257Z,9.22
2023-04-18T23:46:58.162Z,9.12
2023-04-18T23:50:01.913Z,8.96
2023-04-18T23:53:05.809Z,8.61
2023-04-18T23:56:09.794Z,8.91
2023-04-18T23:59:13.837Z,8.83
